createdAt,value
2022-10-11T00:01:09.503Z,6.50
2022-10-11T00:03:36.159Z,6.83
2022-10-11T00:06:02.908Z,8.97
2022-10-11T00:08:29.765Z,8.80
2022-10-11T00:10:58.684Z,6.67
2022-10-11T00:13:25.320Z,11.43
2022-10-11T00:15:51.952Z,7.60
2022-10-11T00:18:18.458Z,6.07
2022-10-11T00:20:44.899Z,5.77
2022-10-11T00:23:11.490Z,7.53
2022-10-11T00:25:37.975Z,9.57
2022-10-11T00:28:04.749Z,7.97
2022-10-11T00:30:31.893Z,7.47
2022-10-11T00:32:58.395Z,9.90
2022-10-11T00:35:25.370Z,7.93
2022-10-11T00:37:52.381Z,8.70
2022-10-11T00:40:20.268Z,7.13
2022-10-11T00:42:46.754Z,5.75
2022-10-11T00:45:31.918Z,7.90
2022-10-11T00:48:03.242Z,7.60
2022-10-11T00:50:31.736Z,7.30
2022-10-11T00:53:01.858Z,10.97
2022-10-11T00:55:35.218Z,6.35
2022-10-11T00:58:01.855Z,4.53
2022-10-11T01:00:28.393Z,8.85
2022-10-11T01:02:55.072Z,6.95
2022-10-11T01:05:30.287Z,8.02
2022-10-11T01:07:59.407Z,5.03
2022-10-11T01:10:27.202Z,12.25
2022-10-11T01:12:59.499Z,4.80
2022-10-11T01:15:32.385Z,8.75
2022-10-11T01:18:06.855Z,6.13
2022-10-11T01:20:42.839Z,6.28
2022-10-11T01:23:24.201Z,5.72
2022-10-11T01:26:14.480Z,5.57
2022-10-11T01:29:08.536Z,5.47
2022-10-11T01:31:40.563Z,6.55
2022-10-11T01:34:31.188Z,3.78
2022-10-11T01:36:57.546Z,6.67
2022-10-11T01:39:25.324Z,5.33
2022-10-11T01:41:55.964Z,5.13
2022-10-11T01:44:24.319Z,7.22
2022-10-11T01:46:51.966Z,7.03
2022-10-11T01:49:18.527Z,4.13
2022-10-11T01:51:47.770Z,5.88
2022-10-11T01:55:04.383Z,6.78
2022-10-11T01:57:53.412Z,4.13
2022-10-11T02:00:23.079Z,3.83
2022-10-11T02:03:10.896Z,4.57
2022-10-11T02:05:56.578Z,3.72
2022-10-11T02:08:36.955Z,5.13
2022-10-11T02:11:23.110Z,7.13
2022-10-11T02:13:54.702Z,8.68
2022-10-11T02:16:31.516Z,6.32
2022-10-11T02:18:58.692Z,4.38
2022-10-11T02:21:27.605Z,3.83
2022-10-11T02:24:00.160Z,6.05
2022-10-11T02:26:29.364Z,3.53
2022-10-11T02:28:57.822Z,10.93
2022-10-11T02:31:25.145Z,5.72
2022-10-11T02:34:27.584Z,4.43
2022-10-11T02:37:16.706Z,7.07
2022-10-11T02:40:16.651Z,4.25
2022-10-11T02:42:46.411Z,5.95
2022-10-11T02:45:25.621Z,5.32
2022-10-11T02:47:52.587Z,4.00
2022-10-11T02:50:19.230Z,5.97
2022-10-11T02:52:45.741Z,4.85
2022-10-11T02:55:12.206Z,3.35
2022-10-11T02:57:38.723Z,5.93
2022-10-11T03:00:06.077Z,5.35
2022-10-11T03:02:32.562Z,4.05
2022-10-11T03:04:58.994Z,4.47
2022-10-11T03:07:26.355Z,6.38
2022-10-11T03:09:52.901Z,4.45
2022-10-11T03:12:19.453Z,3.78
2022-10-11T03:14:45.906Z,4.68
2022-10-11T03:17:35.001Z,4.25
2022-10-11T03:19:58.837Z,7.60
2022-10-11T03:22:25.362Z,3.92
2022-10-11T03:24:51.803Z,3.65
2022-10-11T03:27:18.279Z,6.60
2022-10-11T03:29:44.744Z,4.10
2022-10-11T03:32:11.203Z,7.40
2022-10-11T03:34:37.665Z,5.70
2022-10-11T03:37:04.182Z,2.80
2022-10-11T03:39:30.746Z,4.30
2022-10-11T03:41:57.196Z,6.90
2022-10-11T03:44:23.706Z,6.18
2022-10-11T03:46:50.285Z,6.90
2022-10-11T03:49:16.953Z,4.70
2022-10-11T03:51:43.470Z,5.28
2022-10-11T03:54:09.958Z,5.90
2022-10-11T03:56:36.427Z,4.63
2022-10-11T03:59:02.944Z,3.83
2022-10-11T04:01:29.473Z,6.53
2022-10-11T04:03:56.884Z,7.55
2022-10-11T04:06:23.688Z,5.18
2022-10-11T04:08:50.211Z,5.22
2022-10-11T04:11:16.661Z,5.45
2022-10-11T04:13:43.204Z,3.08
2022-10-11T04:16:09.668Z,4.22
2022-10-11T04:18:36.138Z,7.38
2022-10-11T04:21:02.698Z,6.03
2022-10-11T04:23:31.342Z,4.03
2022-10-11T04:25:57.956Z,5.30
2022-10-11T04:28:24.753Z,5.60
2022-10-11T04:30:51.997Z,6.25
2022-10-11T04:33:18.504Z,4.90
2022-10-11T04:35:46.189Z,5.63
2022-10-11T04:38:12.743Z,3.88
2022-10-11T04:40:39.530Z,7.00
2022-10-11T04:43:06.473Z,4.03
2022-10-11T04:45:33.062Z,4.78
2022-10-11T04:48:00.047Z,4.03
2022-10-11T04:50:26.671Z,4.13
2022-10-11T04:52:53.501Z,8.32
2022-10-11T04:55:20.071Z,5.78
2022-10-11T04:57:46.703Z,4.22
2022-10-11T05:00:13.606Z,7.50
2022-10-11T05:02:40.058Z,5.15
2022-10-11T05:05:07.091Z,7.50
2022-10-11T05:07:33.520Z,4.75
2022-10-11T05:09:59.952Z,3.75
2022-10-11T05:12:26.433Z,3.90
2022-10-11T05:14:52.996Z,5.03
2022-10-11T05:17:19.431Z,2.85
2022-10-11T05:19:45.916Z,4.07
2022-10-11T05:22:12.385Z,5.22
2022-10-11T05:24:38.853Z,4.03
2022-10-11T05:27:05.746Z,4.95
2022-10-11T05:29:32.271Z,6.45
2022-10-11T05:31:59.679Z,4.93
2022-10-11T05:34:26.336Z,6.88
2022-10-11T05:36:52.896Z,4.28
2022-10-11T05:39:19.428Z,5.80
2022-10-11T05:41:46.454Z,7.75
2022-10-11T05:44:13.366Z,6.13
2022-10-11T05:46:39.889Z,4.35
2022-10-11T05:49:06.518Z,3.85
2022-10-11T05:51:35.949Z,8.38
2022-10-11T05:54:02.392Z,7.30
2022-10-11T05:56:28.847Z,13.63
2022-10-11T05:58:59.909Z,6.57
2022-10-11T06:01:28.669Z,6.72
2022-10-11T06:03:55.285Z,7.95
2022-10-11T06:06:21.981Z,6.47
2022-10-11T06:08:48.971Z,11.13
2022-10-11T06:11:18.484Z,7.68
2022-10-11T06:13:45.131Z,8.07
2022-10-11T06:16:11.931Z,8.35
2022-10-11T06:18:38.380Z,10.23
2022-10-11T06:21:05.147Z,8.98
2022-10-11T06:23:31.881Z,7.90
2022-10-11T06:26:03.704Z,6.80
2022-10-11T06:28:30.586Z,6.90
2022-10-11T06:30:57.565Z,5.13
2022-10-11T06:33:24.385Z,5.72
2022-10-11T06:35:57.532Z,4.65
2022-10-11T06:38:23.989Z,7.18
2022-10-11T06:40:50.442Z,7.80
2022-10-11T06:43:16.910Z,3.08
2022-10-11T06:45:43.360Z,3.45
2022-10-11T06:48:09.853Z,7.85
2022-10-11T06:50:58.577Z,3.67
2022-10-11T06:53:24.543Z,9.82
2022-10-11T06:55:50.991Z,5.95
2022-10-11T06:58:17.502Z,7.68
2022-10-11T07:00:44.101Z,5.80
2022-10-11T07:03:10.567Z,6.05
2022-10-11T07:05:37.003Z,5.68
2022-10-11T07:08:03.626Z,8.87
2022-10-11T07:10:30.079Z,5.50
2022-10-11T07:12:56.506Z,9.23
2022-10-11T07:15:23.037Z,6.43
2022-10-11T07:17:49.498Z,5.67
2022-10-11T07:20:15.964Z,5.10
2022-10-11T07:22:42.405Z,6.47
2022-10-11T07:25:08.930Z,5.17
2022-10-11T07:27:35.409Z,5.80
2022-10-11T07:30:01.860Z,6.97
2022-10-11T07:32:28.299Z,3.37
2022-10-11T07:34:54.770Z,4.00
2022-10-11T07:37:21.205Z,4.27
2022-10-11T07:39:49.214Z,2.97
2022-10-11T07:42:15.671Z,5.77
2022-10-11T07:44:42.218Z,10.10
2022-10-11T07:47:11.280Z,4.37
2022-10-11T07:49:38.110Z,5.28
2022-10-11T07:52:04.866Z,7.83
2022-10-11T07:54:31.454Z,3.97
2022-10-11T07:56:57.903Z,5.17
2022-10-11T07:59:24.403Z,6.87
2022-10-11T08:01:50.992Z,6.43
2022-10-11T08:04:17.613Z,8.83
2022-10-11T08:06:44.085Z,7.13
2022-10-11T08:09:10.635Z,5.77
2022-10-11T08:11:37.790Z,8.60
2022-10-11T08:14:05.918Z,5.40
2022-10-11T08:16:32.427Z,5.93
2022-10-11T08:18:58.915Z,4.13
2022-10-11T08:21:25.405Z,5.63
2022-10-11T08:23:51.852Z,7.87
2022-10-11T08:26:18.325Z,5.43
2022-10-11T08:28:44.933Z,7.03
2022-10-11T08:31:13.364Z,5.27
2022-10-11T08:33:40.308Z,5.87
2022-10-11T08:36:07.755Z,7.23
2022-10-11T08:38:36.230Z,7.87
2022-10-11T08:41:02.754Z,8.30
2022-10-11T08:43:46.089Z,9.50
2022-10-11T08:46:14.271Z,6.67
2022-10-11T08:48:42.111Z,10.13
2022-10-11T08:51:23.296Z,6.20
2022-10-11T08:54:28.174Z,6.97
2022-10-11T08:56:54.811Z,6.80
2022-10-11T08:59:30.788Z,5.40
2022-10-11T09:02:04.938Z,6.23
2022-10-11T09:04:31.408Z,5.77
2022-10-11T09:07:20.013Z,10.23
2022-10-11T09:09:56.128Z,8.43
2022-10-11T09:12:56.185Z,9.50
2022-10-11T09:17:57.860Z,6.65
2022-10-11T09:20:52.974Z,5.40
2022-10-11T09:23:35.122Z,6.20
2022-10-11T09:26:06.573Z,5.17
2022-10-11T09:28:47.413Z,5.80
2022-10-11T09:31:13.913Z,7.93
2022-10-11T09:33:45.558Z,6.60
2022-10-11T09:36:27.415Z,4.70
2022-10-11T09:38:56.723Z,5.50
2022-10-11T09:41:38.264Z,8.35
2022-10-11T09:44:06.680Z,7.37
2022-10-11T09:46:40.605Z,8.27
2022-10-11T09:49:14.546Z,9.97
2022-10-11T09:51:46.584Z,6.53
2022-10-11T09:54:13.069Z,7.67
2022-10-11T09:56:44.399Z,8.93
2022-10-11T09:59:29.117Z,7.63
2022-10-11T10:02:08.028Z,6.50
2022-10-11T10:04:35.447Z,7.00
2022-10-11T10:07:12.071Z,6.17
2022-10-11T10:09:38.606Z,9.87
2022-10-11T10:12:12.287Z,7.17
2022-10-11T10:14:40.545Z,9.60
2022-10-11T10:17:15.841Z,6.80
2022-10-11T10:19:48.347Z,8.67
2022-10-11T10:22:20.661Z,10.03
2022-10-11T10:24:48.210Z,10.40
2022-10-11T10:27:14.642Z,10.33
2022-10-11T10:29:41.457Z,7.93
2022-10-11T10:32:15.321Z,7.27
2022-10-11T10:34:55.403Z,9.97
2022-10-11T10:37:28.085Z,6.60
2022-10-11T10:40:22.636Z,5.87
2022-10-11T10:42:50.030Z,11.00
2022-10-11T10:45:21.496Z,7.83
2022-10-11T10:47:57.266Z,14.37
2022-10-11T10:50:32.836Z,10.03
2022-10-11T10:53:34.740Z,11.27
2022-10-11T10:56:28.269Z,9.23
2022-10-11T10:59:10.427Z,9.90
2022-10-11T11:01:50.271Z,12.23
2022-10-11T11:07:03.251Z,11.10
2022-10-11T11:09:53.850Z,16.40
2022-10-11T11:12:36.327Z,8.73
2022-10-11T11:15:04.244Z,8.30
2022-10-11T11:17:53.338Z,6.53
2022-10-11T11:20:41.484Z,10.27
2022-10-11T11:23:21.093Z,14.40
2022-10-11T11:26:04.331Z,8.60
2022-10-11T11:28:52.553Z,8.77
2022-10-11T11:31:33.375Z,7.60
2022-10-11T11:34:17.788Z,9.33
2022-10-11T11:36:54.792Z,8.30
2022-10-11T11:39:31.029Z,12.90
2022-10-11T11:42:19.486Z,9.93
2022-10-11T11:44:47.653Z,12.23
2022-10-11T11:47:29.436Z,9.17
2022-10-11T11:49:59.549Z,9.37
2022-10-11T11:52:35.432Z,9.13
2022-10-11T11:55:08.545Z,8.63
2022-10-11T11:57:53.893Z,11.80
2022-10-11T12:00:22.417Z,7.87
2022-10-11T12:02:57.927Z,7.60
2022-10-11T12:05:31.121Z,7.50
2022-10-11T12:08:01.428Z,11.50
2022-10-11T12:10:52.870Z,9.33
2022-10-11T12:13:22.592Z,8.50
2022-10-11T12:16:03.644Z,12.63
2022-10-11T12:18:31.062Z,9.50
2022-10-11T12:21:17.584Z,12.30
2022-10-11T12:23:47.182Z,8.33
2022-10-11T12:26:28.925Z,9.85
2022-10-11T12:29:39.588Z,11.97
2022-10-11T12:32:05.971Z,9.30
2022-10-11T12:37:17.465Z,12.33
2022-10-11T12:39:53.814Z,10.83
2022-10-11T12:42:25.604Z,10.20
2022-10-11T12:45:21.259Z,10.53
2022-10-11T12:48:13.265Z,12.53
2022-10-11T12:51:03.255Z,9.70
2022-10-11T12:53:37.591Z,9.03
2022-10-11T12:56:40.876Z,12.27
2022-10-11T12:59:17.040Z,11.63
2022-10-11T13:01:57.628Z,8.77
2022-10-11T13:04:29.240Z,14.90
2022-10-11T13:07:05.877Z,13.10
2022-10-11T13:09:41.582Z,12.27
2022-10-11T13:12:15.321Z,21.03
2022-10-11T13:14:44.617Z,12.63
2022-10-11T13:17:25.254Z,11.88
2022-10-11T13:20:05.357Z,11.63
2022-10-11T13:22:34.128Z,13.50
2022-10-11T13:25:07.142Z,16.67
2022-10-11T13:27:33.821Z,14.13
2022-10-11T13:30:02.494Z,14.90
2022-10-11T13:32:30.880Z,13.23
2022-10-11T13:35:24.909Z,12.53
2022-10-11T13:37:51.783Z,15.53
2022-10-11T13:40:20.234Z,10.60
2022-10-11T13:42:47.883Z,16.27
2022-10-11T13:45:16.935Z,14.17
2022-10-11T13:47:43.638Z,14.27
2022-10-11T13:50:16.069Z,15.73
2022-10-11T13:53:02.584Z,14.17
2022-10-11T13:55:32.137Z,13.03
2022-10-11T13:58:00.241Z,13.90
2022-10-11T14:00:35.707Z,14.53
2022-10-11T14:03:02.353Z,13.90
2022-10-11T14:05:34.912Z,14.47
2022-10-11T14:08:20.096Z,13.43
2022-10-11T14:10:47.595Z,12.87
2022-10-11T14:13:32.934Z,11.27
2022-10-11T14:16:02.453Z,13.27
2022-10-11T14:18:58.288Z,16.17
2022-10-11T14:21:43.207Z,14.80
2022-10-11T14:24:09.944Z,9.33
2022-10-11T14:26:40.792Z,10.43
2022-10-11T14:29:27.379Z,10.90
2022-10-11T14:31:58.911Z,11.53
2022-10-11T14:34:25.905Z,9.77
2022-10-11T14:36:55.110Z,13.15
2022-10-11T14:39:23.665Z,10.10
2022-10-11T14:41:51.226Z,10.40
2022-10-11T14:44:18.551Z,13.57
2022-10-11T14:46:46.196Z,8.70
2022-10-11T14:49:16.695Z,11.17
2022-10-11T14:51:44.493Z,9.40
2022-10-11T14:54:11.441Z,11.50
2022-10-11T14:56:38.324Z,11.43
2022-10-11T14:59:04.975Z,11.57
2022-10-11T15:01:31.561Z,8.20
2022-10-11T15:03:58.048Z,7.57
2022-10-11T15:06:27.099Z,8.77
2022-10-11T15:08:54.268Z,10.57
2022-10-11T15:11:22.238Z,11.70
2022-10-11T15:13:51.246Z,9.30
2022-10-11T15:16:20.558Z,7.53
2022-10-11T15:18:48.300Z,8.82
2022-10-11T15:21:14.837Z,10.90
2022-10-11T15:23:41.482Z,9.77
2022-10-11T15:26:13.761Z,10.37
2022-10-11T15:28:40.450Z,10.07
2022-10-11T15:31:08.299Z,11.83
2022-10-11T15:33:35.193Z,11.20
2022-10-11T15:36:01.769Z,11.40
2022-10-11T15:38:28.589Z,9.13
2022-10-11T15:40:55.389Z,10.23
2022-10-11T15:43:24.787Z,12.83
2022-10-11T15:45:52.016Z,10.52
2022-10-11T15:48:19.119Z,14.47
2022-10-11T15:50:46.131Z,9.10
2022-10-11T15:53:20.916Z,7.63
2022-10-11T15:55:52.908Z,7.73
2022-10-11T15:58:23.085Z,12.80
2022-10-11T16:00:51.819Z,13.03
2022-10-11T16:03:18.622Z,8.07
2022-10-11T16:05:45.254Z,9.47
2022-10-11T16:08:11.854Z,13.50
2022-10-11T16:10:38.728Z,9.70
2022-10-11T16:13:05.603Z,8.03
2022-10-11T16:15:32.072Z,10.93
2022-10-11T16:17:58.683Z,15.37
2022-10-11T16:20:27.383Z,9.87
2022-10-11T16:22:54.455Z,11.60
2022-10-11T16:25:21.449Z,11.67
2022-10-11T16:27:47.947Z,9.80
2022-10-11T16:30:15.356Z,10.40
2022-10-11T16:32:41.967Z,10.10
2022-10-11T16:35:08.997Z,12.67
2022-10-11T16:37:35.638Z,13.23
2022-10-11T16:40:02.223Z,8.40
2022-10-11T16:42:28.778Z,16.40
2022-10-11T16:44:55.528Z,12.37
2022-10-11T16:47:22.119Z,12.67
2022-10-11T16:49:48.680Z,8.87
2022-10-11T16:52:15.337Z,12.33
2022-10-11T16:54:46.366Z,10.40
2022-10-11T16:57:18.036Z,12.47
2022-10-11T16:59:44.565Z,12.47
2022-10-11T17:02:17.273Z,17.30
2022-10-11T17:04:44.044Z,23.63
2022-10-11T17:07:10.596Z,16.17
2022-10-11T17:09:40.384Z,15.97
2022-10-11T17:12:11.809Z,20.17
2022-10-11T17:14:39.462Z,22.13
2022-10-11T17:17:07.679Z,17.60
2022-10-11T17:19:34.602Z,12.93
2022-10-11T17:22:01.058Z,19.60
2022-10-11T17:24:27.618Z,15.63
2022-10-11T17:26:54.370Z,13.50
2022-10-11T17:29:21.196Z,16.40
2022-10-11T17:31:49.370Z,19.17
2022-10-11T17:34:16.646Z,15.27
2022-10-11T17:36:43.155Z,25.03
2022-10-11T17:39:15.912Z,17.97
2022-10-11T17:41:43.158Z,18.40
2022-10-11T17:44:10.430Z,13.57
2022-10-11T17:46:37.947Z,18.07
2022-10-11T17:49:08.313Z,23.03
2022-10-11T17:51:36.409Z,20.40
2022-10-11T17:54:03.711Z,20.47
2022-10-11T17:56:33.645Z,35.43
2022-10-11T17:59:01.644Z,24.63
2022-10-11T18:01:29.116Z,31.53
2022-10-11T18:04:01.407Z,22.90
2022-10-11T18:06:29.897Z,18.67
2022-10-11T18:08:56.886Z,19.50
2022-10-11T18:11:23.849Z,20.30
2022-10-11T18:13:52.562Z,21.83
2022-10-11T18:16:23.378Z,19.80
2022-10-11T18:18:49.927Z,15.93
2022-10-11T18:21:16.940Z,12.27
2022-10-11T18:23:43.584Z,14.53
2022-10-11T18:26:15.728Z,12.37
2022-10-11T18:28:42.970Z,12.97
2022-10-11T18:31:13.614Z,16.67
2022-10-11T18:33:41.216Z,17.47
2022-10-11T18:36:09.247Z,17.57
2022-10-11T18:38:36.233Z,15.63
2022-10-11T18:41:10.713Z,16.07
2022-10-11T18:43:38.371Z,14.93
2022-10-11T18:46:11.535Z,13.43
2022-10-11T18:48:42.473Z,17.60
2022-10-11T18:51:12.250Z,14.57
2022-10-11T18:53:38.913Z,14.13
2022-10-11T18:56:07.742Z,18.87
2022-10-11T18:58:35.611Z,20.52
2022-10-11T19:01:16.808Z,13.27
2022-10-11T19:03:45.448Z,15.30
2022-10-11T19:06:14.949Z,15.53
2022-10-11T19:08:41.502Z,13.65
2022-10-11T19:11:09.190Z,17.57
2022-10-11T19:13:36.045Z,13.47
2022-10-11T19:16:07.599Z,15.20
2022-10-11T19:18:34.601Z,17.67
2022-10-11T19:21:02.729Z,15.73
2022-10-11T19:23:38.120Z,16.67
2022-10-11T19:26:09.485Z,14.67
2022-10-11T19:28:36.226Z,12.27
2022-10-11T19:31:08.914Z,11.13
2022-10-11T19:33:36.159Z,16.03
2022-10-11T19:36:05.981Z,15.23
2022-10-11T19:41:00.653Z,18.73
2022-10-11T19:43:27.986Z,15.13
2022-10-11T19:46:01.901Z,14.30
2022-10-11T19:48:28.791Z,12.73
2022-10-11T19:51:10.000Z,15.87
2022-10-11T19:53:36.519Z,20.87
2022-10-11T19:56:06.119Z,12.50
2022-10-11T19:58:32.650Z,18.67
2022-10-11T20:01:07.024Z,12.83
2022-10-11T20:03:33.975Z,12.73
2022-10-11T20:06:01.948Z,14.93
2022-10-11T20:08:28.572Z,15.33
2022-10-11T20:10:55.124Z,12.47
2022-10-11T20:13:21.691Z,17.03
2022-10-11T20:15:48.238Z,21.63
2022-10-11T20:18:14.955Z,15.63
2022-10-11T20:20:54.131Z,16.70
2022-10-11T20:23:25.142Z,18.65
2022-10-11T20:26:03.892Z,19.33
2022-10-11T20:28:32.043Z,17.30
2022-10-11T20:31:00.346Z,17.23
2022-10-11T20:33:28.516Z,17.07
2022-10-11T20:36:03.127Z,19.97
2022-10-11T20:38:30.810Z,18.93
2022-10-11T20:40:58.003Z,13.87
2022-10-11T20:43:25.031Z,16.63
2022-10-11T20:46:03.169Z,18.30
2022-10-11T20:48:30.758Z,19.30
2022-10-11T20:50:57.456Z,13.57
2022-10-11T20:53:24.645Z,20.70
2022-10-11T20:55:54.329Z,17.40
2022-10-11T20:58:22.006Z,14.90
2022-10-11T21:00:48.763Z,19.73
2022-10-11T21:03:15.925Z,22.37
2022-10-11T21:05:42.464Z,18.27
2022-10-11T21:08:09.483Z,17.97
2022-10-11T21:10:36.077Z,19.80
2022-10-11T21:13:02.711Z,17.20
2022-10-11T21:15:30.657Z,19.00
2022-10-11T21:17:57.278Z,17.37
2022-10-11T21:20:24.559Z,17.63
2022-10-11T21:22:51.292Z,23.67
2022-10-11T21:25:18.983Z,18.60
2022-10-11T21:27:45.409Z,17.27
2022-10-11T21:30:11.926Z,19.47
2022-10-11T21:32:38.463Z,25.07
2022-10-11T21:35:05.017Z,43.97
2022-10-11T21:37:31.933Z,25.80
2022-10-11T21:40:00.521Z,33.27
2022-10-11T21:42:29.533Z,14.93
2022-10-11T21:44:56.198Z,14.70
2022-10-11T21:47:22.733Z,15.87
2022-10-11T21:49:49.246Z,18.50
2022-10-11T21:52:15.900Z,25.80
2022-10-11T21:54:42.381Z,24.40
2022-10-11T21:57:08.978Z,25.60
2022-10-11T21:59:35.433Z,21.77
2022-10-11T22:02:02.348Z,21.13
2022-10-11T22:04:28.990Z,20.07
2022-10-11T22:06:55.535Z,22.80
2022-10-11T22:09:22.265Z,23.20
2022-10-11T22:11:48.849Z,19.83
2022-10-11T22:14:15.289Z,18.10
2022-10-11T22:16:41.740Z,23.93
2022-10-11T22:19:08.255Z,25.77
2022-10-11T22:21:34.726Z,21.77
2022-10-11T22:24:01.319Z,19.67
2022-10-11T22:26:29.628Z,22.30
2022-10-11T22:28:57.201Z,24.30
2022-10-11T22:31:23.744Z,22.53
2022-10-11T22:33:54.552Z,17.70
2022-10-11T22:36:21.017Z,19.67
2022-10-11T22:38:47.510Z,28.00
2022-10-11T22:41:14.107Z,27.03
2022-10-11T22:43:40.597Z,27.50
2022-10-11T22:46:07.755Z,27.50
2022-10-11T22:48:34.347Z,29.37
2022-10-11T22:51:01.373Z,24.23
2022-10-11T22:53:27.911Z,23.90
2022-10-11T22:55:54.508Z,29.20
2022-10-11T22:58:21.232Z,28.13
2022-10-11T23:00:48.507Z,30.63
2022-10-11T23:03:16.044Z,27.27
2022-10-11T23:05:42.754Z,30.73
2022-10-11T23:08:09.906Z,27.57
2022-10-11T23:10:40.045Z,23.23
2022-10-11T23:13:06.585Z,28.93
2022-10-11T23:15:33.094Z,25.33
2022-10-11T23:17:59.637Z,28.20
2022-10-11T23:20:26.119Z,28.17
2022-10-11T23:22:52.533Z,30.87
2022-10-11T23:25:19.092Z,24.67
2022-10-11T23:27:45.528Z,28.07
2022-10-11T23:30:12.740Z,34.50
2022-10-11T23:32:39.184Z,29.93
2022-10-11T23:35:06.018Z,24.47
2022-10-11T23:37:32.471Z,30.20
2022-10-11T23:39:59.025Z,28.13
2022-10-11T23:42:25.551Z,30.13
2022-10-11T23:44:52.010Z,26.70
2022-10-11T23:47:18.590Z,28.27
2022-10-11T23:49:45.095Z,27.00
2022-10-11T23:52:11.555Z,25.30
2022-10-11T23:54:38.003Z,23.03
2022-10-11T23:57:04.460Z,28.43
2022-10-11T23:59:31.022Z,30.03
